This is the latest recevied weather packets stored in our database for station/object OK1FET-5. If no packets are shown the sender has not sent any weather packets the latest 10 day(s).
| Time | Temp. | Humidity | Pressure | Rain* | Wind** | Luminosity | Snow |
|---|---|---|---|---|---|---|---|
| 1787985549 | 20.56° C | 78% | 1017.7 hPa | - | - | - | - |
| 1787984954 | 20.56° C | 77% | 1017.8 hPa | - | - | - | - |
| 1787983762 | 20° C | 80% | 1017.6 hPa | - | - | - | - |
| 1787983166 | 19.44° C | 82% | 1017.6 hPa | - | - | - | - |
| 1787982571 | 18.89° C | 83% | 1017.4 hPa | - | - | - | - |
| 1787981975 | 18.33° C | 84% | 1017.3 hPa | - | - | - | - |
| 1787981379 | 17.78° C | 86% | 1017.1 hPa | - | - | - | - |
| 1787980187 | 16.11° C | 92% | 1017 hPa | - | - | - | - |
| 1787979592 | 15° C | 94% | 1017 hPa | - | - | - | - |
| 1787978996 | 15° C | 94% | 1017 hPa | - | - | - | - |
| 1787978400 | 15° C | 94% | 1017 hPa | - | - | - | - |
| 1787977209 | 15° C | 95% | 1016.8 hPa | - | - | - | - |
| 1787976613 | 15° C | 95% | 1016.7 hPa | - | - | - | - |
| 1787976017 | 15.56° C | 94% | 1016.6 hPa | - | - | - | - |
| 1787975421 | 15.56° C | 94% | 1016.4 hPa | - | - | - | - |
| 1787974826 | 15.56° C | 94% | 1016.3 hPa | - | - | - | - |
| 1787974230 | 15.56° C | 94% | 1016.4 hPa | - | - | - | - |
| 1787973634 | 15.56° C | 93% | 1016.4 hPa | - | - | - | - |
| 1787972442 | 15.56° C | 94% | 1016.1 hPa | - | - | - | - |
| 1787971847 | 15.56° C | 94% | 1016.1 hPa | - | - | - | - |
| 1787971251 | 15.56° C | 94% | 1016.2 hPa | - | - | - | - |
| 1787970655 | 15° C | 94% | 1016.4 hPa | - | - | - | - |
| 1787970059 | 15.56° C | 94% | 1016.1 hPa | - | - | - | - |
| 1787969463 | 15.56° C | 94% | 1016.1 hPa | - | - | - | - |
| 1787968868 | 15.56° C | 93% | 1016 hPa | - | - | - | - |
* Rain since midnight (hover to see other rain measurements)
** Current wind speed in m/s (hover to see current wind gust speed)